Time;durP1;ratioP1;P1;durP2;ratioP2;P2;SDS_P1;SDS_P2;PMS_P1;PMS_P2;Temp;Humidity;BMP_temperature;BMP_pressure;BME280_temperature;BME280_humidity;BME280_pressure;Samples;Min_cycle;Max_cycle;Signal;HPM_P1;HPM_P2
2023/09/29 00:05:15;;;;;;;2.75;1.10;;;;;;;17.60;100.00;98560.56;15277835;19;20010;-57
2023/09/29 00:10:47;;;;;;;1.52;1.10;;;;;;;17.59;100.00;98558.88;15273806;19;20018;-55
2023/09/29 00:16:12;;;;;;;3.28;1.05;;;;;;;17.54;100.00;98567.66;15274461;19;20615;-54
2023/09/29 00:21:42;;;;;;;2.60;1.25;;;;;;;17.48;100.00;98568.47;15271584;19;20036;-56
2023/09/29 00:27:07;;;;;;;1.42;1.10;;;;;;;17.41;100.00;98562.97;15269738;19;20018;-56
2023/09/29 00:32:33;;;;;;;2.22;1.10;;;;;;;17.37;100.00;98566.31;15270947;19;20010;-52
2023/09/29 00:38:01;;;;;;;2.00;1.10;;;;;;;17.30;100.00;98562.72;15273439;19;20824;-54
2023/09/29 00:43:27;;;;;;;1.95;1.10;;;;;;;17.27;100.00;98563.13;15272344;19;20019;-52
2023/09/29 00:48:54;;;;;;;2.03;1.17;;;;;;;17.18;100.00;98557.84;15268024;19;20014;-55
2023/09/29 00:54:22;;;;;;;1.40;1.00;;;;;;;17.10;100.00;98560.75;15272123;19;20371;-54
2023/09/29 00:59:48;;;;;;;3.15;1.35;;;;;;;17.04;100.00;98558.81;15263516;19;20027;-55
2023/09/29 01:05:14;;;;;;;1.45;1.10;;;;;;;16.96;100.00;98557.06;15265937;19;20089;-56
2023/09/29 01:10:49;;;;;;;1.52;1.10;;;;;;;16.90;100.00;98555.97;15269813;19;20364;-55
2023/09/29 01:16:14;;;;;;;1.48;1.30;;;;;;;16.84;100.00;98547.75;15271703;19;20472;-55
2023/09/29 01:21:38;;;;;;;1.77;1.20;;;;;;;16.78;100.00;98547.53;15267780;19;20021;-54
2023/09/29 01:27:06;;;;;;;3.28;1.30;;;;;;;16.73;100.00;98543.72;15270597;19;20408;-52
2023/09/29 01:32:32;;;;;;;1.65;1.30;;;;;;;16.67;100.00;98541.78;15263592;19;20051;-50
2023/09/29 01:37:59;;;;;;;1.48;1.20;;;;;;;16.61;100.00;98544.25;15267758;19;20382;-55
2023/09/29 01:43:26;;;;;;;1.45;1.27;;;;;;;16.51;100.00;98549.19;15270416;19;20882;-56
2023/09/29 01:48:52;;;;;;;2.05;1.10;;;;;;;16.43;100.00;98543.88;15269280;19;20021;-54
2023/09/29 01:54:17;;;;;;;3.30;1.30;;;;;;;16.30;100.00;98541.91;15271182;19;20038;-55
2023/09/29 01:59:45;;;;;;;2.22;1.20;;;;;;;16.19;100.00;98543.25;15268794;19;20018;-55
2023/09/29 02:05:11;;;;;;;2.10;1.20;;;;;;;16.15;100.00;98545.53;15259904;19;20079;-55
2023/09/29 02:10:36;;;;;;;1.38;1.20;;;;;;;16.17;100.00;98537.16;15260034;19;20008;-56
2023/09/29 02:16:05;;;;;;;2.35;1.30;;;;;;;16.14;100.00;98545.72;15276988;19;20031;-52
2023/09/29 02:21:31;;;;;;;1.75;1.30;;;;;;;16.10;100.00;98539.84;15278235;19;20014;-53
2023/09/29 02:26:55;;;;;;;1.75;1.20;;;;;;;16.08;100.00;98530.19;15283513;19;20331;-52
2023/09/29 02:32:23;;;;;;;1.67;1.27;;;;;;;16.05;100.00;98527.88;15283890;19;20070;-54
2023/09/29 02:37:49;;;;;;;2.33;1.40;;;;;;;16.01;100.00;98533.69;15276396;19;20014;-52
2023/09/29 02:43:15;;;;;;;1.30;1.20;;;;;;;15.99;100.00;98543.09;15279067;19;20078;-53
2023/09/29 02:48:43;;;;;;;3.20;1.50;;;;;;;15.95;100.00;98536.34;15281352;19;20078;-55
2023/09/29 02:54:10;;;;;;;2.47;1.40;;;;;;;15.90;100.00;98534.22;15282479;19;20018;-52
2023/09/29 02:59:37;;;;;;;2.08;1.30;;;;;;;15.84;100.00;98537.66;15282862;19;20474;-55
2023/09/29 03:05:07;;;;;;;2.17;1.20;;;;;;;15.78;100.00;98541.16;15282587;19;20014;-52
2023/09/29 03:10:37;;;;;;;1.83;1.40;;;;;;;15.72;100.00;98543.59;15269305;19;20482;-50
2023/09/29 03:16:02;;;;;;;2.45;1.40;;;;;;;15.73;100.00;98549.88;15278245;19;20031;-53
2023/09/29 03:21:29;;;;;;;3.67;1.50;;;;;;;15.69;100.00;98549.41;15275428;19;20543;-56
2023/09/29 03:26:54;;;;;;;1.75;1.42;;;;;;;15.68;100.00;98546.88;15275850;19;20852;-51
2023/09/29 03:32:20;;;;;;;2.40;1.35;;;;;;;15.63;100.00;98543.91;15279216;19;20478;-51
2023/09/29 03:37:49;;;;;;;2.00;1.40;;;;;;;15.61;100.00;98552.22;15279023;19;20018;-55
2023/09/29 03:43:13;;;;;;;2.67;1.45;;;;;;;15.54;100.00;98543.19;15274765;19;20032;-54
2023/09/29 03:48:42;;;;;;;1.58;1.33;;;;;;;15.52;100.00;98551.50;15277814;19;20010;-52
2023/09/29 03:54:11;;;;;;;3.00;1.38;;;;;;;15.50;100.00;98552.72;15250763;19;20487;-52
2023/09/29 03:59:35;;;;;;;1.85;1.27;;;;;;;15.49;100.00;98551.03;15272856;19;20025;-55
2023/09/29 04:05:00;;;;;;;2.03;1.40;;;;;;;15.45;100.00;98547.03;15276765;19;20013;-53
2023/09/29 04:10:36;;;;;;;2.55;1.30;;;;;;;15.49;100.00;98548.31;15269758;19;20021;-53
2023/09/29 04:16:07;;;;;;;3.05;1.20;;;;;;;15.50;100.00;98550.00;15272384;19;20078;-53
2023/09/29 04:21:32;;;;;;;1.83;1.25;;;;;;;15.51;100.00;98551.69;15271801;19;20346;-55
2023/09/29 04:27:00;;;;;;;1.70;1.35;;;;;;;15.55;100.00;98553.84;15275198;19;20070;-51
2023/09/29 04:32:24;;;;;;;2.22;1.40;;;;;;;15.55;100.00;98547.56;15269998;19;20017;-55
2023/09/29 04:37:49;;;;;;;1.50;1.38;;;;;;;15.60;100.00;98550.53;15273520;19;20015;-53
2023/09/29 04:43:18;;;;;;;1.33;1.20;;;;;;;15.62;100.00;98558.53;15267737;19;20364;-54
2023/09/29 04:48:43;;;;;;;1.80;1.30;;;;;;;15.61;100.00;98552.22;15269222;19;20090;-52
2023/09/29 04:54:09;;;;;;;1.95;1.23;;;;;;;15.67;100.00;98562.34;15274747;19;20016;-53
2023/09/29 04:59:38;;;;;;;2.25;1.30;;;;;;;15.72;100.00;98557.16;15269504;19;20014;-54
2023/09/29 05:04:56;;;;;;;2.00;1.25;;;;;;;15.76;100.00;98565.75;15267979;19;20035;-57
2023/09/29 05:10:22;;;;;;;1.38;1.23;;;;;;;15.80;100.00;98571.69;15272962;19;20025;-56
2023/09/29 05:15:50;;;;;;;2.88;1.40;;;;;;;15.82;100.00;98564.16;15268708;19;20661;-56
2023/09/29 05:21:15;;;;;;;3.15;1.10;;;;;;;15.80;100.00;98568.97;15268846;19;20022;-58
2023/09/29 05:26:39;;;;;;;2.28;1.40;;;;;;;15.82;100.00;98561.44;15273464;19;20021;-58
2023/09/29 05:32:08;;;;;;;2.55;1.20;;;;;;;15.83;100.00;98560.41;15276096;19;20013;-58
2023/09/29 05:37:33;;;;;;;1.52;1.20;;;;;;;15.87;100.00;98561.75;15277003;19;20021;-59
2023/09/29 05:42:58;;;;;;;2.15;1.20;;;;;;;15.91;100.00;98567.63;15270247;19;20014;-57
2023/09/29 05:48:26;;;;;;;1.30;1.20;;;;;;;15.99;100.00;98565.66;15266927;19;20015;-57
2023/09/29 05:53:52;;;;;;;2.80;1.30;;;;;;;16.02;100.00;98573.41;15274972;19;20078;-58
2023/09/29 05:59:16;;;;;;;2.05;1.40;;;;;;;16.09;100.00;98569.91;15269508;19;20046;-59
2023/09/29 06:04:44;;;;;;;2.90;1.30;;;;;;;16.12;100.00;98569.53;15273371;19;20035;-56
2023/09/29 06:10:10;;;;;;;2.92;1.30;;;;;;;16.17;100.00;98577.94;15269264;19;20043;-58
2023/09/29 06:15:35;;;;;;;2.55;1.40;;;;;;;16.21;100.00;98570.25;15272808;19;20332;-59
2023/09/29 06:21:03;;;;;;;3.08;1.30;;;;;;;16.26;100.00;98575.94;15266330;19;20014;-58
2023/09/29 06:26:28;;;;;;;1.98;1.20;;;;;;;16.29;100.00;98573.66;15268612;19;20010;-60
2023/09/29 06:31:53;;;;;;;3.45;1.30;;;;;;;16.36;100.00;98581.88;15272810;19;20429;-59
2023/09/29 06:37:21;;;;;;;3.65;1.30;;;;;;;16.39;100.00;98586.13;15269254;19;20025;-56
2023/09/29 06:42:46;;;;;;;2.50;1.30;;;;;;;16.47;100.00;98588.69;15266561;19;20016;-57
2023/09/29 06:48:12;;;;;;;2.67;1.17;;;;;;;16.57;100.00;98588.38;15272424;19;20596;-61
2023/09/29 06:53:40;;;;;;;2.63;1.50;;;;;;;16.69;100.00;98599.53;15266206;19;20029;-57
2023/09/29 06:59:11;;;;;;;2.13;1.30;;;;;;;16.82;100.00;98601.56;15268212;19;20074;-57
2023/09/29 07:04:37;;;;;;;1.90;1.30;;;;;;;16.96;100.00;98602.50;15280215;19;20038;-56
2023/09/29 07:10:05;;;;;;;2.88;1.10;;;;;;;17.13;100.00;98603.88;15285709;19;20022;-56
2023/09/29 07:15:30;;;;;;;3.65;1.42;;;;;;;17.35;100.00;98609.25;15295094;19;20082;-57
2023/09/29 07:20:54;;;;;;;2.85;1.20;;;;;;;17.58;100.00;98602.69;15290704;19;20028;-60
2023/09/29 07:26:21;;;;;;;2.20;1.13;;;;;;;17.85;100.00;98599.00;15286940;19;20043;-59
2023/09/29 07:31:48;;;;;;;4.72;1.42;;;;;;;18.00;100.00;98595.31;15290896;19;20527;-60
2023/09/29 07:37:12;;;;;;;2.92;1.27;;;;;;;18.13;100.00;98589.91;15291930;19;20027;-59
2023/09/29 07:42:40;;;;;;;4.25;1.33;;;;;;;18.26;100.00;98594.53;15266734;19;20020;-55
2023/09/29 07:48:05;;;;;;;1.88;1.23;;;;;;;18.41;100.00;98577.13;15291817;19;20105;-58
2023/09/29 07:53:29;;;;;;;2.25;1.30;;;;;;;18.64;100.00;98571.25;15293934;19;20021;-54
2023/09/29 07:58:58;;;;;;;3.67;1.30;;;;;;;18.84;100.00;98562.25;15285190;19;20029;-57
2023/09/29 08:04:22;;;;;;;2.97;1.10;;;;;;;18.99;100.00;98571.09;15287952;19;20022;-59
2023/09/29 08:09:48;;;;;;;2.38;1.17;;;;;;;19.19;100.00;98583.84;15287998;19;20464;-56
2023/09/29 08:15:20;;;;;;;2.20;1.20;;;;;;;19.32;100.00;98581.09;15287730;19;20026;-59
2023/09/29 08:20:52;;;;;;;2.40;1.30;;;;;;;19.48;100.00;98587.13;15275552;19;20033;-52
2023/09/29 08:26:16;;;;;;;4.03;1.40;;;;;;;19.62;100.00;98566.88;15277617;19;20022;-52
2023/09/29 08:31:44;;;;;;;3.58;1.25;;;;;;;19.70;100.00;98547.50;15278268;19;20014;-54
2023/09/29 08:37:08;;;;;;;1.58;1.27;;;;;;;19.80;100.00;98559.88;15283652;19;20014;-49
2023/09/29 08:42:45;;;;;;;5.22;1.30;;;;;;;19.93;100.00;98559.84;15284531;19;20806;-55
2023/09/29 08:48:15;;;;;;;1.55;1.10;;;;;;;20.08;100.00;98564.16;15286171;19;20014;-56
2023/09/29 08:53:41;;;;;;;2.63;1.30;;;;;;;20.24;100.00;98562.81;15283193;19;20010;-53
2023/09/29 08:59:07;;;;;;;3.53;1.15;;;;;;;20.38;100.00;98566.31;15287263;19;20010;-52
2023/09/29 09:04:34;;;;;;;1.75;1.25;;;;;;;20.52;100.00;98570.59;15278942;19;20018;-51
2023/09/29 09:09:59;;;;;;;1.55;1.10;;;;;;;20.64;100.00;98568.81;15280774;19;20010;-53
2023/09/29 09:15:33;;;;;;;2.08;1.20;;;;;;;20.79;100.00;98575.88;15284279;19;20020;-53
2023/09/29 09:21:01;;;;;;;1.42;1.20;;;;;;;20.88;100.00;98574.53;15281155;19;20421;-53
2023/09/29 09:26:26;;;;;;;1.27;1.02;;;;;;;20.97;100.00;98572.34;15279142;19;20022;-53
2023/09/29 09:31:54;;;;;;;4.75;1.40;;;;;;;21.04;100.00;98577.75;15281300;19;20025;-51
2023/09/29 09:37:22;;;;;;;3.95;1.20;;;;;;;21.14;100.00;98577.25;15275964;19;20486;-53
2023/09/29 09:42:48;;;;;;;2.33;1.20;;;;;;;21.31;100.00;98552.84;15277118;19;20019;-49
2023/09/29 09:48:18;;;;;;;6.57;1.30;;;;;;;21.46;100.00;98555.19;15282848;19;20014;-54
2023/09/29 09:53:47;;;;;;;1.20;1.10;;;;;;;21.59;100.00;98557.81;15278154;19;20023;-51
2023/09/29 09:59:14;;;;;;;2.78;1.20;;;;;;;21.72;100.00;98545.81;15280468;19;20018;-54
2023/09/29 10:04:40;;;;;;;3.83;1.17;;;;;;;21.88;100.00;98549.00;15276762;19;20447;-53
2023/09/29 10:10:09;;;;;;;3.78;1.27;;;;;;;21.98;100.00;98546.53;15277578;19;20052;-54
2023/09/29 10:15:35;;;;;;;3.28;1.10;;;;;;;22.16;100.00;98551.97;15279095;19;20014;-53
2023/09/29 10:21:15;;;;;;;3.45;1.20;;;;;;;22.23;100.00;98554.59;15279312;19;20010;-52
2023/09/29 10:26:49;;;;;;;3.55;1.10;;;;;;;22.32;100.00;98557.84;15281041;19;20007;-51
2023/09/29 10:32:20;;;;;;;3.08;1.30;;;;;;;22.42;100.00;98571.88;15277978;19;20014;-55
2023/09/29 10:37:47;;;;;;;1.83;1.20;;;;;;;22.47;100.00;98563.78;15284796;19;20022;-54
2023/09/29 10:43:16;;;;;;;4.00;1.13;;;;;;;22.52;100.00;98551.25;15286500;19;20018;-50
2023/09/29 10:48:46;;;;;;;3.38;1.17;;;;;;;22.56;100.00;98546.94;15294639;19;20010;-52
2023/09/29 10:54:13;;;;;;;4.05;1.20;;;;;;;22.63;100.00;98547.69;15288776;19;20360;-53
2023/09/29 10:59:48;;;;;;;3.88;1.33;;;;;;;22.66;100.00;98544.44;15294827;19;20422;-50
2023/09/29 11:05:15;;;;;;;3.25;1.25;;;;;;;22.84;100.00;98550.91;15233511;19;20371;-51
2023/09/29 11:10:41;;;;;;;5.90;1.50;;;;;;;23.02;100.00;98541.72;15287798;19;20078;-53
2023/09/29 11:16:09;;;;;;;3.35;1.40;;;;;;;23.08;100.00;98544.34;15290349;19;20050;-50
2023/09/29 11:21:41;;;;;;;3.90;1.23;;;;;;;23.14;100.00;98528.81;15286998;19;20025;-53
2023/09/29 11:27:07;;;;;;;3.08;1.25;;;;;;;23.17;100.00;98520.06;15287309;19;20028;-52
2023/09/29 11:32:37;;;;;;;2.83;1.10;;;;;;;23.21;100.00;98517.72;15283403;19;20367;-50
2023/09/29 11:38:05;;;;;;;3.38;1.20;;;;;;;23.34;100.00;98514.69;15292073;19;20028;-50
2023/09/29 11:43:30;;;;;;;2.55;1.10;;;;;;;23.52;100.00;98507.34;15284193;19;20485;-52
2023/09/29 11:48:59;;;;;;;3.50;1.10;;;;;;;23.70;100.00;98487.91;15289717;19;20010;-53
2023/09/29 11:54:25;;;;;;;4.47;1.20;;;;;;;23.72;100.00;98492.34;15291225;19;20062;-53
2023/09/29 11:59:52;;;;;;;2.88;1.08;;;;;;;23.70;100.00;98498.09;15291559;19;20038;-52
2023/09/29 12:05:22;;;;;;;4.60;1.15;;;;;;;23.67;100.00;98493.94;15291729;19;20018;-52
2023/09/29 12:10:49;;;;;;;1.55;1.00;;;;;;;23.72;100.00;98487.69;15287614;19;20050;-50
2023/09/29 12:16:14;;;;;;;2.85;1.30;;;;;;;23.61;100.00;98489.38;15283388;19;20030;-50
2023/09/29 12:21:42;;;;;;;2.55;1.05;;;;;;;23.65;100.00;98479.56;15286407;19;20022;-52
2023/09/29 12:27:08;;;;;;;2.85;1.15;;;;;;;23.75;100.00;98475.34;15290222;19;20034;-50
2023/09/29 12:32:33;;;;;;;2.22;1.33;;;;;;;23.95;100.00;98477.63;15285699;19;20018;-51
2023/09/29 12:38:01;;;;;;;3.28;1.05;;;;;;;24.12;100.00;98472.19;15289835;19;20023;-53
2023/09/29 12:43:26;;;;;;;3.10;1.10;;;;;;;24.14;100.00;98451.59;15285419;19;20022;-56
2023/09/29 12:48:51;;;;;;;1.88;1.30;;;;;;;24.24;100.00;98458.34;15283792;19;20017;-57
2023/09/29 12:54:18;;;;;;;2.50;1.08;;;;;;;24.10;96.75;98449.59;15283717;19;20018;-54
2023/09/29 12:59:43;;;;;;;2.05;1.00;;;;;;;24.11;100.00;98448.50;15286541;19;20097;-51
2023/09/29 13:05:11;;;;;;;2.55;1.10;;;;;;;24.05;100.00;98449.50;15282635;19;20013;-48
2023/09/29 13:10:39;;;;;;;2.05;1.20;;;;;;;24.15;100.00;98444.19;15285716;19;20026;-52
2023/09/29 13:16:04;;;;;;;2.72;1.13;;;;;;;24.35;99.15;98442.81;15285953;19;21145;-49
2023/09/29 13:21:33;;;;;;;1.40;1.02;;;;;;;24.81;100.00;98440.78;15278643;19;20022;-52
2023/09/29 13:27:02;;;;;;;2.60;1.30;;;;;;;24.83;85.92;98448.78;15280387;19;20015;-52
2023/09/29 13:32:27;;;;;;;5.18;1.40;;;;;;;24.97;89.88;98438.25;15282725;19;20014;-53
2023/09/29 13:37:53;;;;;;;2.60;1.10;;;;;;;24.93;88.73;98438.75;15285561;19;20025;-53
2023/09/29 13:43:20;;;;;;;3.13;0.85;;;;;;;24.95;89.97;98430.22;15282034;19;20050;-53
2023/09/29 13:48:45;;;;;;;5.38;0.90;;;;;;;24.93;85.06;98430.50;15285158;19;20025;-52
2023/09/29 13:54:09;;;;;;;1.75;1.00;;;;;;;24.88;91.45;98416.63;15276535;19;20025;-53
2023/09/29 13:59:37;;;;;;;1.70;1.15;;;;;;;24.79;91.59;98420.09;15280866;19;20486;-53
2023/09/29 14:05:04;;;;;;;2.53;1.10;;;;;;;24.69;94.51;98423.53;15279742;19;20094;-52
2023/09/29 14:10:29;;;;;;;5.00;1.00;;;;;;;24.68;97.33;98411.66;15285407;19;20006;-51
2023/09/29 14:15:56;;;;;;;3.25;1.20;;;;;;;24.66;96.49;98401.97;15299018;19;20797;-53
2023/09/29 14:27:46;;;;;;;1.65;1.40;;;;;;;24.82;99.18;98387.34;15318560;19;20022;-88
2023/09/29 14:33:13;;;;;;;5.30;1.13;;;;;;;24.89;100.00;98396.25;15315228;19;20331;-88
2023/09/29 14:38:38;;;;;;;5.20;1.27;;;;;;;25.10;94.85;98390.16;15358836;19;20101;-88
2023/09/29 14:44:02;;;;;;;3.58;1.00;;;;;;;25.24;92.72;98384.00;15336660;19;20026;-88
2023/09/29 14:49:29;;;;;;;3.53;1.17;;;;;;;25.54;88.79;98396.50;15322339;19;20015;-88
2023/09/29 14:55:04;;;;;;;2.50;1.10;;;;;;;25.64;84.54;98403.19;15326734;19;20011;-88
2023/09/29 15:00:29;;;;;;;2.95;1.02;;;;;;;25.54;84.68;98418.56;15316484;19;20762;-88
2023/09/29 15:05:56;;;;;;;3.58;1.20;;;;;;;25.43;84.68;98414.03;15325558;19;20038;-90
2023/09/29 15:11:22;;;;;;;2.38;0.90;;;;;;;25.26;85.05;98418.75;15321205;19;20036;-88
2023/09/29 15:16:47;;;;;;;1.65;1.15;;;;;;;25.05;89.06;98424.03;15332877;19;20014;-87
2023/09/29 15:22:25;;;;;;;;;;;;;;;;;;;;;
2023/09/29 15:27:50;;;;;;;2.45;1.20;;;;;;;25.12;92.01;98419.13;15325715;19;20018;-87
2023/09/29 15:33:16;;;;;;;3.58;1.10;;;;;;;25.07;94.16;98419.09;15312682;19;20014;-86
2023/09/29 15:38:55;;;;;;;3.40;1.10;;;;;;;24.90;94.63;98416.41;15321281;19;20015;-88
2023/09/29 15:44:22;;;;;;;3.80;1.10;;;;;;;24.65;99.86;98403.06;15304444;19;20021;-87
2023/09/29 15:49:50;;;;;;;2.80;1.02;;;;;;;24.37;100.00;98418.63;15330145;19;20015;-89
2023/09/29 16:07:16;;;;;;;5.47;1.10;;;;;;;23.63;100.00;98426.72;15294938;19;20018;-84
2023/09/29 16:12:41;;;;;;;1.42;1.20;;;;;;;23.45;100.00;98440.69;15294611;19;20040;-85
2023/09/29 16:18:10;;;;;;;2.08;1.30;;;;;;;23.30;100.00;98443.94;15293515;19;20450;-86
2023/09/29 16:23:36;;;;;;;3.17;1.30;;;;;;;23.19;100.00;98446.50;15291328;19;20351;-85
2023/09/29 16:29:01;;;;;;;2.20;1.23;;;;;;;23.13;100.00;98450.19;15294913;19;20022;-84
2023/09/29 16:34:28;;;;;;;2.38;1.30;;;;;;;23.06;100.00;98454.97;15288283;19;20021;-86
2023/09/29 16:39:53;;;;;;;2.08;1.30;;;;;;;22.97;100.00;98462.78;15291922;19;20050;-87
2023/09/29 16:45:27;;;;;;;2.53;1.10;;;;;;;22.86;100.00;98466.38;15293860;19;20028;-87
2023/09/29 16:50:54;;;;;;;2.25;1.27;;;;;;;22.81;100.00;98467.09;15296871;19;20473;-87
2023/09/29 16:56:42;;;;;;;2.58;1.20;;;;;;;22.71;100.00;98478.69;15297921;19;20037;-86
2023/09/29 17:02:42;;;;;;;2.08;1.27;;;;;;;22.59;100.00;98481.41;15302877;19;20011;-86
2023/09/29 17:08:10;;;;;;;2.05;1.10;;;;;;;22.41;100.00;98482.34;15294385;19;20026;-87
2023/09/29 17:13:35;;;;;;;4.57;1.20;;;;;;;22.31;100.00;98491.16;15290734;19;20031;-85
2023/09/29 17:19:04;;;;;;;3.28;1.30;;;;;;;22.22;100.00;98483.50;15297233;19;20015;-88
2023/09/29 17:30:10;;;;;;;2.22;1.30;;;;;;;22.01;100.00;98493.94;15370344;19;20036;-86
2023/09/29 17:41:51;;;;;;;2.17;1.20;;;;;;;21.67;100.00;98488.13;15290372;19;20007;-87
2023/09/29 17:53:51;;;;;;;3.92;1.60;;;;;;;21.30;100.00;98485.41;15295691;19;20106;-87
2023/09/29 17:59:28;;;;;;;5.13;1.83;;;;;;;21.12;100.00;98502.69;15300995;19;20015;-87
2023/09/29 18:05:12;;;;;;;1.85;1.50;;;;;;;20.99;100.00;98498.19;15323461;19;20014;-85
2023/09/29 18:10:55;;;;;;;4.13;1.63;;;;;;;20.86;100.00;98510.09;15288886;19;20093;-85
2023/09/29 18:16:31;;;;;;;3.97;1.50;;;;;;;20.76;100.00;98518.81;15289691;19;20014;-87
2023/09/29 18:21:59;;;;;;;2.35;1.20;;;;;;;20.73;100.00;98520.09;15298861;19;20023;-87
2023/09/29 18:33:09;;;;;;;4.47;1.60;;;;;;;20.60;100.00;98536.63;15293576;19;20511;-54
2023/09/29 18:38:34;;;;;;;2.17;1.60;;;;;;;20.43;100.00;98545.41;15275269;19;20068;-56
2023/09/29 18:43:59;;;;;;;4.30;1.52;;;;;;;20.40;100.00;98558.72;15261885;19;20026;-54
2023/09/29 18:49:26;;;;;;;2.75;1.42;;;;;;;20.37;100.00;98565.44;15272954;19;20010;-53
2023/09/29 18:54:51;;;;;;;2.55;1.70;;;;;;;20.37;100.00;98568.19;15276602;19;20098;-54
2023/09/29 19:00:16;;;;;;;2.28;1.70;;;;;;;20.33;100.00;98567.78;15289286;19;20077;-53
2023/09/29 19:05:44;;;;;;;6.78;1.90;;;;;;;20.61;100.00;98552.84;15287168;19;20014;-55
2023/09/29 19:11:09;;;;;;;3.13;1.88;;;;;;;20.73;100.00;98560.34;15286948;19;20045;-55
2023/09/29 19:16:35;;;;;;;3.35;1.85;;;;;;;20.80;100.00;98574.81;15283269;19;20013;-57
2023/09/29 19:22:02;;;;;;;4.68;2.08;;;;;;;20.74;100.00;98583.91;15280546;19;20037;-53
2023/09/29 19:27:29;;;;;;;3.30;2.50;;;;;;;20.66;100.00;98592.38;15281658;19;20049;-58
2023/09/29 19:32:53;;;;;;;4.30;2.60;;;;;;;20.55;100.00;98600.25;15291304;19;20026;-54
2023/09/29 19:38:21;;;;;;;4.95;2.70;;;;;;;20.40;100.00;98605.22;15289420;19;20025;-53
2023/09/29 19:43:45;;;;;;;4.55;2.75;;;;;;;20.27;100.00;98601.53;15284774;19;20017;-55
2023/09/29 19:49:11;;;;;;;3.97;2.85;;;;;;;20.24;100.00;98612.03;15281769;19;20018;-55
2023/09/29 19:54:38;;;;;;;5.00;3.47;;;;;;;20.22;100.00;98620.47;15283102;19;20014;-52
2023/09/29 20:00:05;;;;;;;5.80;3.80;;;;;;;20.21;100.00;98632.47;15288577;19;20017;-54
2023/09/29 20:05:29;;;;;;;5.03;3.65;;;;;;;20.16;100.00;98635.88;15279073;19;20025;-56
2023/09/29 20:10:57;;;;;;;4.63;3.58;;;;;;;20.14;100.00;98634.41;15274822;19;20028;-56
2023/09/29 20:16:21;;;;;;;5.90;3.90;;;;;;;20.03;100.00;98657.81;15286031;19;20025;-56
2023/09/29 20:21:47;;;;;;;6.35;3.85;;;;;;;19.98;100.00;98658.47;15282116;19;20022;-57
2023/09/29 20:27:16;;;;;;;5.30;4.20;;;;;;;19.88;100.00;98669.03;15275851;19;20018;-56
2023/09/29 20:32:41;;;;;;;7.47;4.97;;;;;;;19.78;100.00;98685.00;15281632;19;20018;-56
2023/09/29 20:38:07;;;;;;;7.90;5.43;;;;;;;19.66;100.00;98687.56;15289151;19;20015;-57
2023/09/29 20:43:35;;;;;;;6.93;5.35;;;;;;;19.49;100.00;98688.03;15284652;19;20018;-57
2023/09/29 20:48:59;;;;;;;11.43;5.80;;;;;;;19.38;100.00;98688.69;15286717;19;20021;-59
2023/09/29 20:54:24;;;;;;;8.68;6.30;;;;;;;19.30;100.00;98703.38;15279607;19;20890;-56
2023/09/29 20:59:56;;;;;;;9.27;6.55;;;;;;;19.22;100.00;98709.06;15283800;19;20021;-55
2023/09/29 21:05:21;;;;;;;7.68;6.18;;;;;;;19.08;100.00;98720.00;15283061;19;20018;-55
2023/09/29 21:10:45;;;;;;;9.95;6.55;;;;;;;19.05;100.00;98725.03;15282659;19;20478;-56
2023/09/29 21:16:13;;;;;;;10.63;6.50;;;;;;;18.97;100.00;98728.81;15284420;19;20394;-55
2023/09/29 21:21:37;;;;;;;8.05;6.38;;;;;;;18.87;100.00;98731.06;15283185;19;20632;-55
2023/09/29 21:27:08;;;;;;;9.15;6.55;;;;;;;18.90;100.00;98727.91;15283958;19;20021;-55
2023/09/29 21:32:42;;;;;;;8.85;6.07;;;;;;;18.89;100.00;98737.13;15279427;19;20025;-57
2023/09/29 21:38:07;;;;;;;9.75;5.93;;;;;;;18.79;100.00;98732.94;15284643;19;20021;-56
2023/09/29 21:43:33;;;;;;;8.43;6.18;;;;;;;18.74;100.00;98740.91;15278952;19;20015;-55
2023/09/29 21:49:01;;;;;;;8.60;5.93;;;;;;;18.74;100.00;98754.56;15280951;19;20007;-56
2023/09/29 21:54:25;;;;;;;7.78;5.75;;;;;;;18.76;100.00;98748.88;14764413;19;10000648;-55
2023/09/29 21:59:50;;;;;;;7.15;5.45;;;;;;;18.75;100.00;98764.44;15276565;19;20461;-55
2023/09/29 22:05:24;;;;;;;8.77;5.55;;;;;;;18.74;100.00;98770.94;15281329;19;20025;-55
2023/09/29 22:10:49;;;;;;;8.90;5.63;;;;;;;18.74;100.00;98768.22;15283596;19;20018;-56
2023/09/29 22:16:13;;;;;;;7.55;5.50;;;;;;;18.71;100.00;98782.25;15281296;19;20529;-56
2023/09/29 22:21:41;;;;;;;6.97;5.28;;;;;;;18.68;100.00;98799.03;15283189;19;20020;-52
2023/09/29 22:27:05;;;;;;;8.45;5.63;;;;;;;18.47;100.00;98817.22;15274504;19;20013;-56
2023/09/29 22:32:30;;;;;;;8.50;5.20;;;;;;;18.40;100.00;98816.38;15279117;19;21237;-53
2023/09/29 22:37:58;;;;;;;6.93;4.57;;;;;;;18.17;100.00;98838.47;15295845;19;20010;-57
2023/09/29 22:43:23;;;;;;;5.72;4.20;;;;;;;17.92;100.00;98878.94;15290630;19;20046;-57
2023/09/29 22:48:48;;;;;;;6.82;4.55;;;;;;;17.63;100.00;98889.84;15292945;19;20483;-56
2023/09/29 22:54:19;;;;;;;6.10;4.35;;;;;;;17.44;100.00;98945.81;15289870;19;20243;-58
2023/09/29 22:59:43;;;;;;;5.60;3.65;;;;;;;17.00;100.00;99022.94;15284112;19;20355;-57
2023/09/29 23:05:11;;;;;;;4.70;3.10;;;;;;;16.68;100.00;99136.53;15288295;19;21265;-59
2023/09/29 23:10:38;;;;;;;3.88;2.30;;;;;;;16.34;100.00;99179.47;15291442;19;20094;-59
2023/09/29 23:16:03;;;;;;;3.65;2.25;;;;;;;16.02;100.00;99206.66;15292369;19;20011;-58
2023/09/29 23:21:27;;;;;;;3.42;1.80;;;;;;;15.68;100.00;99225.94;15288929;19;20017;-57
2023/09/29 23:26:55;;;;;;;2.63;1.80;;;;;;;15.41;100.00;99236.19;15288206;19;20017;-58
2023/09/29 23:32:20;;;;;;;3.00;2.20;;;;;;;15.25;100.00;99270.50;15279228;19;20070;-60
2023/09/29 23:37:46;;;;;;;3.88;2.60;;;;;;;15.22;100.00;99297.97;15285641;19;20029;-59
2023/09/29 23:43:13;;;;;;;4.05;2.40;;;;;;;15.18;100.00;99312.91;15285268;19;20022;-60
2023/09/29 23:48:38;;;;;;;3.03;2.50;;;;;;;15.19;100.00;99320.03;15285859;19;20016;-59
2023/09/29 23:54:03;;;;;;;2.95;2.10;;;;;;;15.18;100.00;99312.06;15289779;19;20023;-60
2023/09/29 23:59:31;;;;;;;2.03;1.60;;;;;;;15.19;100.00;99328.16;15290003;19;20003;-58
